createdAt,value
2018-10-21T00:00:05.563Z,92457.36
2018-10-21T00:02:40.430Z,92454.18
2018-10-21T00:05:15.146Z,92450.24
2018-10-21T00:07:50.356Z,92443.70
2018-10-21T00:10:25.269Z,92442.73
2018-10-21T00:13:00.260Z,92437.95
2018-10-21T00:15:35.281Z,92436.59
2018-10-21T00:18:10.213Z,92443.98
2018-10-21T00:20:45.635Z,92438.45
2018-10-21T00:23:20.476Z,92440.52
2018-10-21T00:25:55.209Z,92441.20
2018-10-21T00:28:30.383Z,92432.97
2018-10-21T00:31:05.167Z,92434.91
2018-10-21T00:33:39.903Z,92438.33
2018-10-21T00:36:14.604Z,92436.62
2018-10-21T00:38:49.440Z,92427.34
2018-10-21T00:41:24.212Z,92428.38
2018-10-21T00:43:58.953Z,92428.95
2018-10-21T00:46:33.940Z,92425.05
2018-10-21T00:49:09.132Z,92429.26
2018-10-21T00:51:43.861Z,92425.17
2018-10-21T00:54:22.593Z,92418.19
2018-10-21T00:56:57.553Z,92413.30
2018-10-21T00:59:32.775Z,92408.83
2018-10-21T01:02:07.391Z,92409.81
2018-10-21T01:04:42.501Z,92404.52
2018-10-21T01:07:17.736Z,92406.52
2018-10-21T01:09:54.371Z,92403.83
2018-10-21T01:12:29.436Z,92404.38
2018-10-21T01:15:04.699Z,92403.84
2018-10-21T01:17:41.978Z,92395.97
2018-10-21T01:20:16.809Z,92395.79
2018-10-21T01:22:51.726Z,92398.83
2018-10-21T01:25:26.479Z,92390.71
2018-10-21T01:28:01.268Z,92395.59
2018-10-21T01:30:36.535Z,92401.09
2018-10-21T01:33:11.693Z,92396.50
2018-10-21T01:35:46.750Z,92404.06
2018-10-21T01:38:21.624Z,92407.11
2018-10-21T01:40:58.039Z,92410.56
2018-10-21T01:43:33.768Z,92409.78
2018-10-21T01:46:08.678Z,92404.67
2018-10-21T01:48:43.504Z,92400.51
2018-10-21T01:51:18.269Z,92402.64
2018-10-21T01:53:53.345Z,92406.23
2018-10-21T01:56:28.081Z,92410.97
2018-10-21T01:59:02.835Z,92409.37
2018-10-21T02:01:37.653Z,92412.31
2018-10-21T02:04:12.668Z,92409.91
2018-10-21T02:06:47.436Z,92412.14
2018-10-21T02:09:22.130Z,92405.81
2018-10-21T02:12:01.913Z,92404.29
2018-10-21T02:14:36.977Z,92406.14
2018-10-21T02:17:11.776Z,92402.33
2018-10-21T02:19:48.864Z,92403.75
2018-10-21T02:22:23.544Z,92395.63
2018-10-21T02:24:58.182Z,92395.81
2018-10-21T02:27:32.992Z,92398.05
2018-10-21T02:30:08.879Z,92398.56
2018-10-21T02:32:44.483Z,92395.01
2018-10-21T02:35:19.842Z,92398.30
2018-10-21T02:37:55.448Z,92395.09
2018-10-21T02:41:47.017Z,92395.63
2018-10-21T02:44:23.331Z,92398.75
2018-10-21T02:46:59.013Z,92395.09
2018-10-21T02:49:33.938Z,92397.06
2018-10-21T02:52:10.135Z,92406.44
2018-10-21T02:54:44.968Z,92404.98
2018-10-21T02:57:22.917Z,92405.25
2018-10-21T02:59:57.748Z,92407.05
2018-10-21T03:02:32.795Z,92412.86
2018-10-21T03:05:07.599Z,92413.58
2018-10-21T03:07:42.458Z,92409.97
2018-10-21T03:10:17.460Z,92412.39
2018-10-21T03:12:53.101Z,92408.55
2018-10-21T03:15:28.321Z,92404.17
2018-10-21T03:18:03.550Z,92408.91
2018-10-21T03:20:39.642Z,92405.52
2018-10-21T03:23:14.820Z,92398.39
2018-10-21T03:25:50.230Z,92395.69
2018-10-21T03:28:25.161Z,92406.81
2018-10-21T03:31:00.554Z,92404.76
2018-10-21T03:33:35.543Z,92406.83
2018-10-21T03:36:10.559Z,92402.31
2018-10-21T03:38:45.313Z,92410.41
2018-10-21T03:41:20.095Z,92403.14
2018-10-21T03:43:55.105Z,92404.34
2018-10-21T03:46:30.118Z,92403.48
2018-10-21T03:49:04.988Z,92405.65
2018-10-21T03:51:39.819Z,92400.84
2018-10-21T03:54:14.758Z,92410.59
2018-10-21T03:56:49.662Z,92408.70
2018-10-21T03:59:24.612Z,92409.51
2018-10-21T04:01:59.291Z,92415.45
2018-10-21T04:04:33.994Z,92411.82
2018-10-21T04:07:08.772Z,92402.03
2018-10-21T04:09:43.680Z,92396.34
2018-10-21T04:12:18.503Z,92395.89
2018-10-21T04:14:53.386Z,92394.28
2018-10-21T04:17:28.165Z,92395.27
2018-10-21T04:20:02.914Z,92391.16
2018-10-21T04:22:43.533Z,92401.97
2018-10-21T04:25:18.524Z,92391.81
2018-10-21T04:27:54.145Z,92393.74
2018-10-21T04:30:30.305Z,92392.23
2018-10-21T04:33:13.457Z,92395.28
2018-10-21T04:35:48.280Z,92396.77
2018-10-21T04:38:30.717Z,92396.20
2018-10-21T04:41:05.665Z,92390.80
2018-10-21T04:43:40.455Z,92397.38
2018-10-21T04:46:15.396Z,92392.66
2018-10-21T04:48:51.454Z,92392.58
2018-10-21T04:51:26.139Z,92388.84
2018-10-21T04:54:00.905Z,92394.02
2018-10-21T04:56:35.814Z,92396.41
2018-10-21T04:59:10.599Z,92396.92
2018-10-21T05:01:46.352Z,92395.25
2018-10-21T05:04:21.057Z,92400.23
2018-10-21T05:06:55.711Z,92394.13
2018-10-21T05:09:30.489Z,92392.17
2018-10-21T05:12:05.683Z,92390.30
2018-10-21T05:14:40.493Z,92388.70
2018-10-21T05:17:15.423Z,92399.00
2018-10-21T05:19:50.464Z,92400.47
2018-10-21T05:22:25.271Z,92400.80
2018-10-21T05:25:00.196Z,92397.98
2018-10-21T05:27:34.878Z,92409.87
2018-10-21T05:30:10.982Z,92411.91
2018-10-21T05:32:45.783Z,92414.28
2018-10-21T05:35:21.131Z,92416.80
2018-10-21T05:37:56.029Z,92414.77
2018-10-21T05:40:31.271Z,92418.07
2018-10-21T05:43:06.312Z,92420.30
2018-10-21T05:45:41.093Z,92421.01
2018-10-21T05:48:16.042Z,92418.08
2018-10-21T05:50:50.715Z,92417.21
2018-10-21T05:53:25.837Z,92412.18
2018-10-21T05:56:00.736Z,92423.62
2018-10-21T05:58:35.654Z,92418.02
2018-10-21T06:01:10.340Z,92426.98
2018-10-21T06:03:46.071Z,92427.52
2018-10-21T06:06:21.188Z,92427.84
2018-10-21T06:08:56.429Z,92427.38
2018-10-21T06:11:31.121Z,92429.43
2018-10-21T06:14:06.250Z,92429.03
2018-10-21T06:16:56.924Z,92434.69
2018-10-21T06:19:36.384Z,92426.16
2018-10-21T06:25:05.508Z,92443.72
2018-10-21T06:27:40.675Z,92450.48
2018-10-21T06:30:15.747Z,92449.09
2018-10-21T06:32:50.394Z,92447.39
2018-10-21T06:35:25.251Z,92436.83
2018-10-21T06:38:00.128Z,92440.30
2018-10-21T06:40:35.268Z,92441.31
2018-10-21T06:43:10.289Z,92441.75
2018-10-21T06:45:45.095Z,92437.03
2018-10-21T06:48:20.240Z,92442.57
2018-10-21T06:50:55.117Z,92443.01
2018-10-21T06:53:29.774Z,92439.59
2018-10-21T06:56:04.961Z,92435.39
2018-10-21T06:58:39.820Z,92440.19
2018-10-21T07:01:14.634Z,92434.51
2018-10-21T07:03:49.706Z,92434.47
2018-10-21T07:06:25.728Z,92433.26
2018-10-21T07:09:01.910Z,92432.17
2018-10-21T07:11:36.851Z,92419.39
2018-10-21T07:14:11.601Z,92420.45
2018-10-21T07:16:46.366Z,92425.67
2018-10-21T07:19:21.478Z,92426.79
2018-10-21T07:21:56.566Z,92431.16
2018-10-21T07:24:31.516Z,92419.20
2018-10-21T07:27:06.332Z,92422.77
2018-10-21T07:29:41.271Z,92418.16
2018-10-21T07:32:16.152Z,92421.59
2018-10-21T07:34:50.766Z,92427.61
2018-10-21T07:37:25.460Z,92427.52
2018-10-21T07:40:00.412Z,92428.30
2018-10-21T07:42:35.499Z,92427.97
2018-10-21T07:45:10.362Z,92428.73
2018-10-21T07:47:45.040Z,92429.99
2018-10-21T07:50:22.211Z,92426.30
2018-10-21T07:52:56.941Z,92425.92
2018-10-21T07:55:32.423Z,92428.98
2018-10-21T07:58:07.782Z,92426.84
2018-10-21T08:00:42.832Z,92423.66
2018-10-21T08:03:18.090Z,92419.48
2018-10-21T08:05:58.546Z,92416.09
2018-10-21T08:08:33.482Z,92415.14
2018-10-21T08:11:08.493Z,92410.05
2018-10-21T08:13:43.405Z,92405.27
2018-10-21T08:16:18.569Z,92406.62
2018-10-21T08:18:54.053Z,92405.62
2018-10-21T08:21:28.921Z,92411.81
2018-10-21T08:24:03.763Z,92408.56
2018-10-21T08:26:38.539Z,92409.83
2018-10-21T08:29:13.264Z,92406.52
2018-10-21T08:31:48.191Z,92407.39
2018-10-21T08:34:23.061Z,92411.77
2018-10-21T08:36:57.994Z,92402.37
2018-10-21T08:39:38.428Z,92403.39
2018-10-21T08:42:13.250Z,92404.41
2018-10-21T08:44:48.321Z,92401.13
2018-10-21T08:47:23.365Z,92406.73
2018-10-21T08:49:53.355Z,92400.63
2018-10-21T08:52:28.407Z,92407.37
2018-10-21T08:54:58.328Z,92400.04
2018-10-21T08:57:28.271Z,92400.63
2018-10-21T08:59:58.054Z,92393.66
2018-10-21T09:02:27.821Z,92390.16
2018-10-21T09:04:57.526Z,92390.03
2018-10-21T09:07:27.248Z,92391.19
2018-10-21T09:09:57.074Z,92393.29
2018-10-21T09:12:27.101Z,92391.38
2018-10-21T09:14:56.900Z,92391.38
2018-10-21T09:17:26.870Z,92388.98
2018-10-21T09:19:56.754Z,92389.59
2018-10-21T09:22:26.474Z,92391.08
2018-10-21T09:24:56.350Z,92387.60
2018-10-21T09:27:26.378Z,92387.56
2018-10-21T09:29:56.087Z,92380.12
2018-10-21T09:32:25.852Z,92383.37
2018-10-21T09:34:55.570Z,92382.97
2018-10-21T09:37:25.271Z,92383.08
2018-10-21T09:39:55.431Z,92381.31
2018-10-21T09:42:28.054Z,92381.84
2018-10-21T09:44:59.066Z,92376.04
2018-10-21T09:47:28.804Z,92374.88
2018-10-21T09:49:58.704Z,92375.20
2018-10-21T09:52:28.649Z,92377.00
2018-10-21T09:54:58.388Z,92369.11
2018-10-21T09:57:28.391Z,92367.91
2018-10-21T09:59:58.509Z,92364.44
2018-10-21T10:02:36.532Z,92362.66
2018-10-21T10:05:06.549Z,92359.20
2018-10-21T10:07:36.661Z,92357.11
2018-10-21T10:10:07.629Z,92364.14
2018-10-21T10:12:37.646Z,92352.88
2018-10-21T10:15:07.933Z,92358.23
2018-10-21T10:17:37.814Z,92352.29
2018-10-21T10:20:08.409Z,92349.59
2018-10-21T10:22:38.221Z,92347.17
2018-10-21T10:25:08.988Z,92347.54
2018-10-21T10:27:38.943Z,92348.26
2018-10-21T10:30:10.460Z,92348.18
2018-10-21T10:32:41.421Z,92339.81
2018-10-21T10:35:12.256Z,92342.59
2018-10-21T10:37:42.304Z,92338.25
2018-10-21T10:40:13.334Z,92338.16
2018-10-21T10:42:43.383Z,92338.30
2018-10-21T10:45:13.120Z,92336.91
2018-10-21T10:47:42.882Z,92330.99
2018-10-21T10:50:12.711Z,92332.63
2018-10-21T10:52:42.681Z,92333.11
2018-10-21T10:55:12.811Z,92329.57
2018-10-21T10:57:42.662Z,92329.23
2018-10-21T11:00:12.723Z,92325.75
2018-10-21T11:02:42.678Z,92321.41
2018-10-21T11:05:12.388Z,92321.08
2018-10-21T11:07:42.108Z,92318.67
2018-10-21T11:10:11.963Z,92320.73
2018-10-21T11:12:41.896Z,92320.95
2018-10-21T11:15:11.633Z,92323.55
2018-10-21T11:17:41.446Z,92317.39
2018-10-21T11:20:11.930Z,92317.09
2018-10-21T11:22:41.747Z,92312.28
2018-10-21T11:25:12.125Z,92315.91
2018-10-21T11:27:41.998Z,92313.89
2018-10-21T11:30:11.728Z,92315.73
2018-10-21T11:32:41.499Z,92314.09
2018-10-21T11:35:14.065Z,92315.89
2018-10-21T11:37:43.891Z,92316.83
2018-10-21T11:40:14.019Z,92317.05
2018-10-21T11:42:43.999Z,92316.52
2018-10-21T11:45:13.737Z,92315.55
2018-10-21T11:47:43.483Z,92320.28
2018-10-21T11:50:13.319Z,92316.11
2018-10-21T11:52:43.407Z,92317.11
2018-10-21T11:55:13.947Z,92316.33
2018-10-21T11:57:44.089Z,92321.62
2018-10-21T12:00:13.840Z,92329.86
2018-10-21T12:02:43.543Z,92331.06
2018-10-21T12:05:13.418Z,92331.91
2018-10-21T12:07:43.321Z,92327.50
2018-10-21T12:10:13.162Z,92329.50
2018-10-21T12:12:43.108Z,92333.33
2018-10-21T12:15:13.256Z,92331.20
2018-10-21T12:17:43.320Z,92335.45
2018-10-21T12:20:13.396Z,92337.79
2018-10-21T12:22:43.367Z,92333.68
2018-10-21T12:25:13.759Z,92334.76
2018-10-21T12:27:43.684Z,92334.13
2018-10-21T12:30:14.076Z,92335.06
2018-10-21T12:32:44.845Z,92332.77
2018-10-21T12:35:15.238Z,92334.50
2018-10-21T12:37:45.197Z,92329.72
2018-10-21T12:40:14.942Z,92331.30
2018-10-21T12:42:45.269Z,92324.48
2018-10-21T12:45:15.944Z,92328.58
2018-10-21T12:47:46.569Z,92319.98
2018-10-21T12:50:16.540Z,92324.96
2018-10-21T12:52:46.269Z,92323.47
2018-10-21T12:55:16.320Z,92323.56
2018-10-21T12:57:46.293Z,92323.20
2018-10-21T13:00:24.169Z,92324.19
2018-10-21T13:02:54.032Z,92328.16
2018-10-21T13:05:24.850Z,92328.94
2018-10-21T13:07:54.582Z,92332.24
2018-10-21T13:10:24.402Z,92329.64
2018-10-21T13:12:54.394Z,92323.21
2018-10-21T13:15:24.623Z,92322.19
2018-10-21T13:17:54.781Z,92316.70
2018-10-21T13:20:24.534Z,92318.69
2018-10-21T13:22:55.737Z,92324.50
2018-10-21T13:25:25.461Z,92319.33
2018-10-21T13:27:55.328Z,92324.81
2018-10-21T13:30:25.385Z,92321.67
2018-10-21T13:32:55.125Z,92320.45
2018-10-21T13:35:24.904Z,92317.47
2018-10-21T13:37:54.804Z,92316.45
2018-10-21T13:40:25.006Z,92314.64
2018-10-21T13:42:54.988Z,92316.54
2018-10-21T13:45:24.805Z,92320.31
2018-10-21T13:47:54.494Z,92321.69
2018-10-21T13:50:24.197Z,92320.61
2018-10-21T13:52:54.081Z,92323.58
2018-10-21T13:55:24.043Z,92323.06
2018-10-21T13:57:53.791Z,92324.48
2018-10-21T14:00:23.677Z,92317.95
2018-10-21T14:02:53.588Z,92323.36
2018-10-21T14:05:23.319Z,92323.16
2018-10-21T14:07:53.195Z,92325.20
2018-10-21T14:10:22.916Z,92325.37
2018-10-21T14:12:52.632Z,92323.50
2018-10-21T14:15:22.435Z,92326.15
2018-10-21T14:17:52.361Z,92320.73
2018-10-21T14:20:22.399Z,92323.06
2018-10-21T14:22:52.567Z,92320.66
2018-10-21T14:25:22.279Z,92325.70
2018-10-21T14:27:51.963Z,92320.25
2018-10-21T14:30:21.873Z,92322.81
2018-10-21T14:32:51.746Z,92326.94
2018-10-21T14:35:21.462Z,92325.45
2018-10-21T14:37:51.246Z,92331.84
2018-10-21T14:40:21.168Z,92329.79
2018-10-21T14:42:50.919Z,92330.57
2018-10-21T14:45:21.644Z,92333.69
2018-10-21T14:47:51.586Z,92336.88
2018-10-21T14:50:21.597Z,92338.38
2018-10-21T14:52:51.453Z,92337.23
2018-10-21T14:55:21.368Z,92339.86
2018-10-21T14:57:51.119Z,92337.09
2018-10-21T15:00:20.920Z,92338.59
2018-10-21T15:02:50.844Z,92338.23
2018-10-21T15:05:20.762Z,92341.92
2018-10-21T15:07:51.039Z,92340.79
2018-10-21T15:10:20.789Z,92340.93
2018-10-21T15:14:15.088Z,92343.42
2018-10-21T15:16:45.082Z,92340.51
2018-10-21T15:19:15.537Z,92340.58
2018-10-21T15:21:45.812Z,92346.83
2018-10-21T15:24:15.524Z,92353.38
2018-10-21T15:26:45.275Z,92349.86
2018-10-21T15:29:15.124Z,92355.43
2018-10-21T15:31:44.984Z,92360.26
2018-10-21T15:34:14.771Z,92359.73
2018-10-21T15:36:44.759Z,92364.52
2018-10-21T15:39:14.462Z,92374.42
2018-10-21T15:41:44.180Z,92376.28
2018-10-21T15:44:14.021Z,92376.06
2018-10-21T15:46:44.169Z,92380.33
2018-10-21T15:49:13.881Z,92383.39
2018-10-21T15:51:44.130Z,92382.80
2018-10-21T15:54:13.948Z,92381.68
2018-10-21T15:56:43.872Z,92385.42
2018-10-21T15:59:13.632Z,92393.73
2018-10-21T16:01:43.343Z,92396.58
2018-10-21T16:04:14.451Z,92402.41
2018-10-21T16:06:44.392Z,92395.77
2018-10-21T16:09:14.192Z,92405.03
2018-10-21T16:11:44.313Z,92410.52
2018-10-21T16:14:14.157Z,92409.27
2018-10-21T16:16:44.100Z,92411.41
2018-10-21T16:19:13.827Z,92409.13
2018-10-21T16:21:43.834Z,92409.98
2018-10-21T16:24:13.796Z,92413.31
2018-10-21T16:26:44.125Z,92417.70
2018-10-21T16:29:14.552Z,92414.07
2018-10-21T16:31:44.730Z,92416.69
2018-10-21T16:34:14.918Z,92417.87
2018-10-21T16:36:44.977Z,92424.07
2018-10-21T16:39:14.760Z,92424.84
2018-10-21T16:41:45.185Z,92428.52
2018-10-21T16:44:16.076Z,92427.97
2018-10-21T16:46:46.574Z,92428.73
2018-10-21T16:49:16.310Z,92436.23
2018-10-21T16:51:46.104Z,92442.97
2018-10-21T16:54:16.310Z,92429.69
2018-10-21T16:56:46.588Z,92439.33
2018-10-21T16:59:16.441Z,92438.59
2018-10-21T17:01:47.682Z,92439.28
2018-10-21T17:04:18.456Z,92440.48
2018-10-21T17:06:48.244Z,92440.75
2018-10-21T17:09:17.984Z,92445.73
2018-10-21T17:11:48.032Z,92445.42
2018-10-21T17:14:18.083Z,92446.59
2018-10-21T17:16:47.935Z,92445.22
2018-10-21T17:19:18.339Z,92448.37
2018-10-21T17:21:48.083Z,92448.58
2018-10-21T17:24:17.868Z,92446.61
2018-10-21T17:26:47.894Z,92446.21
2018-10-21T17:29:17.766Z,92448.37
2018-10-21T17:31:47.482Z,92444.55
2018-10-21T17:34:17.365Z,92452.70
2018-10-21T17:36:47.621Z,92451.95
2018-10-21T17:39:20.978Z,92453.17
2018-10-21T17:41:51.228Z,92457.39
2018-10-21T17:44:21.087Z,92460.95
2018-10-21T17:46:51.015Z,92452.97
2018-10-21T17:49:22.440Z,92451.30
2018-10-21T17:51:52.289Z,92455.72
2018-10-21T17:54:22.240Z,92454.45
2018-10-21T17:56:58.600Z,92451.77
2018-10-21T17:59:28.824Z,92444.02
2018-10-21T18:01:59.081Z,92450.39
2018-10-21T18:04:28.934Z,92458.48
2018-10-21T18:06:58.677Z,92455.42
2018-10-21T18:09:28.407Z,92463.09
2018-10-21T18:11:58.161Z,92467.05
2018-10-21T18:14:27.890Z,92463.97
2018-10-21T18:16:57.615Z,92479.95
2018-10-21T18:19:27.749Z,92470.14
2018-10-21T18:21:57.488Z,92471.16
2018-10-21T18:24:27.255Z,92472.58
2018-10-21T18:26:57.337Z,92474.09
2018-10-21T18:29:27.251Z,92477.03
2018-10-21T18:32:00.577Z,92475.05
2018-10-21T18:34:34.007Z,92479.95
2018-10-21T18:37:04.094Z,92476.95
2018-10-21T18:39:35.302Z,92481.86
2018-10-21T18:42:05.391Z,92485.34
2018-10-21T18:44:35.146Z,92487.48
2018-10-21T18:47:07.651Z,92494.05
2018-10-21T18:49:37.383Z,92488.59
2018-10-21T18:52:08.492Z,92489.85
2018-10-21T18:54:38.461Z,92493.50
2018-10-21T18:57:08.189Z,92497.92
2018-10-21T18:59:37.968Z,92498.72
2018-10-21T19:02:07.942Z,92500.45
2018-10-21T19:04:37.687Z,92499.75
2018-10-21T19:07:08.152Z,92500.78
2018-10-21T19:09:38.058Z,92498.72
2018-10-21T19:12:08.235Z,92503.86
2018-10-21T19:14:38.137Z,92512.89
2018-10-21T19:17:08.197Z,92510.59
2018-10-21T19:19:47.776Z,92513.91
2018-10-21T19:22:17.717Z,92517.31
2018-10-21T19:24:47.712Z,92522.06
2018-10-21T19:27:18.864Z,92524.20
2018-10-21T19:29:50.057Z,92524.83
2018-10-21T19:32:19.817Z,92520.80
2018-10-21T19:34:50.635Z,92526.02
2018-10-21T19:37:20.869Z,92523.00
2018-10-21T19:39:53.095Z,92529.48
2018-10-21T19:42:24.597Z,92536.13
2018-10-21T19:44:54.334Z,92533.08
2018-10-21T19:47:24.089Z,92540.23
2018-10-21T19:49:54.973Z,92540.63
2018-10-21T19:52:24.872Z,92539.72
2018-10-21T19:54:54.609Z,92550.48
2018-10-21T19:57:24.648Z,92546.64
2018-10-21T19:59:59.539Z,92547.68
2018-10-21T20:02:34.537Z,92552.89
2018-10-21T20:05:10.272Z,92554.27
2018-10-21T20:07:45.161Z,92555.61
2018-10-21T20:10:20.344Z,92555.83
2018-10-21T20:12:55.536Z,92551.57
2018-10-21T20:15:30.668Z,92555.93
2018-10-21T20:18:05.691Z,92558.36
2018-10-21T20:20:40.666Z,92555.61
2018-10-21T20:23:15.714Z,92550.06
2018-10-21T20:25:54.220Z,92558.38
2018-10-21T20:28:29.175Z,92563.59
2018-10-21T20:31:04.178Z,92564.70
2018-10-21T20:33:39.382Z,92561.68
2018-10-21T20:36:14.516Z,92557.12
2018-10-21T20:38:49.713Z,92554.18
2018-10-21T20:41:24.634Z,92550.51
2018-10-21T20:43:59.699Z,92553.08
2018-10-21T20:46:34.638Z,92550.98
2018-10-21T20:49:09.592Z,92552.41
2018-10-21T20:51:44.911Z,92549.14
2018-10-21T20:54:19.971Z,92541.84
2018-10-21T20:56:54.918Z,92537.14
2018-10-21T20:59:29.928Z,92540.88
2018-10-21T21:02:05.133Z,92541.42
2018-10-21T21:04:40.194Z,92542.84
2018-10-21T21:07:14.934Z,92545.20
2018-10-21T21:09:49.901Z,92542.50
2018-10-21T21:12:24.772Z,92541.11
2018-10-21T21:14:59.970Z,92545.10
2018-10-21T21:17:34.892Z,92538.89
2018-10-21T21:20:10.215Z,92546.07
2018-10-21T21:22:44.990Z,92542.70
2018-10-21T21:25:19.909Z,92533.52
2018-10-21T21:27:54.958Z,92539.05
2018-10-21T21:30:30.039Z,92534.66
2018-10-21T21:33:05.475Z,92544.11
2018-10-21T21:35:40.305Z,92548.94
2018-10-21T21:38:15.329Z,92547.25
2018-10-21T21:40:50.393Z,92549.11
2018-10-21T21:43:25.196Z,92550.05
2018-10-21T21:46:00.290Z,92549.55
2018-10-21T21:48:35.105Z,92547.75
2018-10-21T21:51:09.904Z,92542.31
2018-10-21T21:53:44.806Z,92546.22
2018-10-21T21:56:19.566Z,92543.88
2018-10-21T21:58:54.484Z,92541.06
2018-10-21T22:01:29.373Z,92539.60
2018-10-21T22:04:04.326Z,92529.44
2018-10-21T22:06:39.569Z,92538.61
2018-10-21T22:09:14.353Z,92547.31
2018-10-21T22:11:49.238Z,92546.95
2018-10-21T22:14:24.049Z,92538.11
2018-10-21T22:17:01.702Z,92539.25
2018-10-21T22:19:36.578Z,92545.69
2018-10-21T22:22:11.443Z,92543.81
2018-10-21T22:24:46.382Z,92549.00
2018-10-21T22:27:21.107Z,92548.73
2018-10-21T22:29:55.832Z,92549.27
2018-10-21T22:32:30.842Z,92554.56
2018-10-21T22:35:06.284Z,92555.36
2018-10-21T22:37:41.169Z,92551.23
2018-10-21T22:40:15.943Z,92557.28
2018-10-21T22:42:51.139Z,92550.76
2018-10-21T22:45:25.784Z,92549.76
2018-10-21T22:48:00.637Z,92559.98
2018-10-21T22:50:35.697Z,92567.80
2018-10-21T22:53:10.659Z,92556.82
2018-10-21T22:55:45.441Z,92563.12
2018-10-21T22:58:20.271Z,92560.88
2018-10-21T23:00:55.193Z,92560.16
2018-10-21T23:03:30.095Z,92558.17
2018-10-21T23:06:04.861Z,92562.17
2018-10-21T23:08:40.036Z,92566.60
2018-10-21T23:11:14.677Z,92563.84
2018-10-21T23:13:49.499Z,92573.68
2018-10-21T23:16:24.353Z,92574.57
2018-10-21T23:19:04.641Z,92571.09
2018-10-21T23:21:39.560Z,92573.39
2018-10-21T23:24:14.612Z,92572.23
2018-10-21T23:26:49.556Z,92569.17
2018-10-21T23:29:24.396Z,92570.66
2018-10-21T23:31:59.274Z,92571.45
2018-10-21T23:34:34.105Z,92573.59
2018-10-21T23:37:08.969Z,92565.73
2018-10-21T23:39:43.872Z,92573.77
2018-10-21T23:42:18.805Z,92564.73
2018-10-21T23:44:53.875Z,92565.48
2018-10-21T23:47:28.794Z,92564.17
2018-10-21T23:50:03.727Z,92572.16
2018-10-21T23:52:38.459Z,92561.92
2018-10-21T23:55:13.268Z,92560.84
2018-10-21T23:57:48.035Z,92564.05
